Flight Briefing for CPX413

Departure Arrival
Tulsa International Airport (KTUL)
Click to view FAA NOTAMS
Miami International Airport (KMIA)
Click to view FAA NOTAMS
Departure Time Arrival Time
N/A N/A
Aircraft Distance
B757-200SF 1016nm
Departure METAR Arrival METAR
KTUL 152053Z 01011KT 6SM -FZDZ BR OVC010 M02/M03 A2988 RMK AO2 SLP123 P0000 60000 I1000 I3000 T10171033 53002 KMIA 152053Z 10006KT 10SM BKN034 OVC250 25/19 A2993 RMK AO2 SLP134 T02500189 56013
Suggested Route
MAYJI FSM LIT SQS MEI ACORI BULZI NICKI Q81 ENDEW JUULI SSCOT5


View recent IFR Routes data
Notes



Charts and Procedures

Charts for KTUL
No chart available
Charts for KMIA
No chart available

Ventusky Weather